sensor_id;sensor_type;location;lat;lon;timestamp;P1;durP1;ratioP1;P2;durP2;ratioP2
4268;SDS011;2148;48.554;7.834;2022-08-19T00:01:39;17.47;;;15.83;;
4268;SDS011;2148;48.554;7.834;2022-08-19T00:04:07;16.63;;;15.03;;
4268;SDS011;2148;48.554;7.834;2022-08-19T00:06:33;16.33;;;14.83;;
4268;SDS011;2148;48.554;7.834;2022-08-19T00:09:00;17.60;;;16.00;;
4268;SDS011;2148;48.554;7.834;2022-08-19T00:11:26;18.57;;;16.67;;
4268;SDS011;2148;48.554;7.834;2022-08-19T00:13:52;17.40;;;15.60;;
4268;SDS011;2148;48.554;7.834;2022-08-19T00:16:18;16.30;;;14.57;;
4268;SDS011;2148;48.554;7.834;2022-08-19T00:18:45;17.17;;;15.57;;
4268;SDS011;2148;48.554;7.834;2022-08-19T00:21:10;17.60;;;15.90;;
4268;SDS011;2148;48.554;7.834;2022-08-19T00:23:36;17.80;;;16.27;;
4268;SDS011;2148;48.554;7.834;2022-08-19T00:26:04;17.67;;;15.90;;
4268;SDS011;2148;48.554;7.834;2022-08-19T00:28:30;18.23;;;16.53;;
4268;SDS011;2148;48.554;7.834;2022-08-19T00:30:56;17.00;;;15.37;;
4268;SDS011;2148;48.554;7.834;2022-08-19T00:33:21;16.93;;;15.23;;
4268;SDS011;2148;48.554;7.834;2022-08-19T00:35:47;16.30;;;14.80;;
4268;SDS011;2148;48.554;7.834;2022-08-19T00:38:12;17.27;;;15.57;;
4268;SDS011;2148;48.554;7.834;2022-08-19T00:40:37;16.13;;;14.73;;
4268;SDS011;2148;48.554;7.834;2022-08-19T00:43:07;16.80;;;15.10;;
4268;SDS011;2148;48.554;7.834;2022-08-19T00:45:35;16.00;;;14.50;;
4268;SDS011;2148;48.554;7.834;2022-08-19T00:48:01;16.13;;;14.57;;
4268;SDS011;2148;48.554;7.834;2022-08-19T00:50:30;16.47;;;14.97;;
4268;SDS011;2148;48.554;7.834;2022-08-19T00:52:56;15.40;;;13.90;;
4268;SDS011;2148;48.554;7.834;2022-08-19T00:55:22;17.40;;;15.90;;
4268;SDS011;2148;48.554;7.834;2022-08-19T00:57:51;16.53;;;15.00;;
4268;SDS011;2148;48.554;7.834;2022-08-19T01:00:19;15.57;;;14.07;;
4268;SDS011;2148;48.554;7.834;2022-08-19T01:02:46;16.67;;;15.07;;
4268;SDS011;2148;48.554;7.834;2022-08-19T01:05:13;16.07;;;14.50;;
4268;SDS011;2148;48.554;7.834;2022-08-19T01:07:43;17.17;;;15.40;;
4268;SDS011;2148;48.554;7.834;2022-08-19T01:10:11;15.50;;;14.03;;
4268;SDS011;2148;48.554;7.834;2022-08-19T01:12:38;16.53;;;15.03;;
4268;SDS011;2148;48.554;7.834;2022-08-19T01:15:05;16.63;;;15.03;;
4268;SDS011;2148;48.554;7.834;2022-08-19T01:17:32;16.10;;;14.60;;
4268;SDS011;2148;48.554;7.834;2022-08-19T01:19:58;16.83;;;15.27;;
4268;SDS011;2148;48.554;7.834;2022-08-19T01:24:49;16.23;;;14.70;;
4268;SDS011;2148;48.554;7.834;2022-08-19T01:27:14;17.40;;;15.70;;
4268;SDS011;2148;48.554;7.834;2022-08-19T01:29:41;17.17;;;15.47;;
4268;SDS011;2148;48.554;7.834;2022-08-19T01:32:07;16.47;;;14.93;;
4268;SDS011;2148;48.554;7.834;2022-08-19T01:34:34;17.23;;;15.73;;
4268;SDS011;2148;48.554;7.834;2022-08-19T01:37:00;17.27;;;15.67;;
4268;SDS011;2148;48.554;7.834;2022-08-19T01:39:32;17.83;;;16.13;;
4268;SDS011;2148;48.554;7.834;2022-08-19T01:41:58;16.57;;;15.00;;
4268;SDS011;2148;48.554;7.834;2022-08-19T01:44:23;16.77;;;15.07;;
4268;SDS011;2148;48.554;7.834;2022-08-19T01:46:49;16.43;;;14.93;;
4268;SDS011;2148;48.554;7.834;2022-08-19T01:49:17;17.30;;;15.67;;
4268;SDS011;2148;48.554;7.834;2022-08-19T01:51:44;17.17;;;15.60;;
4268;SDS011;2148;48.554;7.834;2022-08-19T01:54:11;16.93;;;15.33;;
4268;SDS011;2148;48.554;7.834;2022-08-19T01:56:37;15.43;;;13.93;;
4268;SDS011;2148;48.554;7.834;2022-08-19T01:59:04;16.47;;;14.97;;
4268;SDS011;2148;48.554;7.834;2022-08-19T02:01:33;16.27;;;14.77;;
4268;SDS011;2148;48.554;7.834;2022-08-19T02:03:59;17.73;;;16.03;;
4268;SDS011;2148;48.554;7.834;2022-08-19T02:06:25;16.07;;;14.57;;
4268;SDS011;2148;48.554;7.834;2022-08-19T02:08:51;16.30;;;14.80;;
4268;SDS011;2148;48.554;7.834;2022-08-19T02:11:20;16.97;;;15.27;;
4268;SDS011;2148;48.554;7.834;2022-08-19T02:13:46;16.90;;;15.30;;
4268;SDS011;2148;48.554;7.834;2022-08-19T02:16:12;17.23;;;15.63;;
4268;SDS011;2148;48.554;7.834;2022-08-19T02:18:37;16.40;;;14.80;;
4268;SDS011;2148;48.554;7.834;2022-08-19T02:21:02;16.73;;;15.13;;
4268;SDS011;2148;48.554;7.834;2022-08-19T02:23:28;16.87;;;15.17;;
4268;SDS011;2148;48.554;7.834;2022-08-19T02:25:53;17.30;;;15.60;;
4268;SDS011;2148;48.554;7.834;2022-08-19T02:28:18;17.03;;;15.10;;
4268;SDS011;2148;48.554;7.834;2022-08-19T02:30:44;17.17;;;15.37;;
4268;SDS011;2148;48.554;7.834;2022-08-19T02:33:09;16.90;;;15.30;;
4268;SDS011;2148;48.554;7.834;2022-08-19T02:35:34;16.40;;;14.87;;
4268;SDS011;2148;48.554;7.834;2022-08-19T02:38:00;17.10;;;15.50;;
4268;SDS011;2148;48.554;7.834;2022-08-19T02:40:50;17.20;;;15.67;;
4268;SDS011;2148;48.554;7.834;2022-08-19T02:43:17;16.60;;;15.00;;
4268;SDS011;2148;48.554;7.834;2022-08-19T02:45:45;17.27;;;15.67;;
4268;SDS011;2148;48.554;7.834;2022-08-19T02:48:10;17.10;;;15.60;;
4268;SDS011;2148;48.554;7.834;2022-08-19T02:50:38;16.53;;;14.93;;
4268;SDS011;2148;48.554;7.834;2022-08-19T02:53:04;16.03;;;14.50;;
4268;SDS011;2148;48.554;7.834;2022-08-19T02:55:31;17.20;;;15.50;;
4268;SDS011;2148;48.554;7.834;2022-08-19T02:57:56;16.33;;;14.73;;
4268;SDS011;2148;48.554;7.834;2022-08-19T03:00:22;17.27;;;15.57;;
4268;SDS011;2148;48.554;7.834;2022-08-19T03:02:48;17.60;;;16.00;;
4268;SDS011;2148;48.554;7.834;2022-08-19T03:05:13;17.70;;;15.90;;
4268;SDS011;2148;48.554;7.834;2022-08-19T03:07:39;16.10;;;14.70;;
4268;SDS011;2148;48.554;7.834;2022-08-19T03:10:04;16.63;;;15.10;;
4268;SDS011;2148;48.554;7.834;2022-08-19T03:12:30;16.63;;;15.13;;
4268;SDS011;2148;48.554;7.834;2022-08-19T03:14:55;16.50;;;14.90;;
4268;SDS011;2148;48.554;7.834;2022-08-19T03:17:21;17.23;;;15.53;;
4268;SDS011;2148;48.554;7.834;2022-08-19T03:19:46;16.13;;;14.63;;
4268;SDS011;2148;48.554;7.834;2022-08-19T03:22:11;15.97;;;14.57;;
4268;SDS011;2148;48.554;7.834;2022-08-19T03:24:37;17.77;;;15.03;;
4268;SDS011;2148;48.554;7.834;2022-08-19T03:27:03;16.73;;;14.90;;
4268;SDS011;2148;48.554;7.834;2022-08-19T03:29:30;17.97;;;15.97;;
4268;SDS011;2148;48.554;7.834;2022-08-19T03:31:57;17.57;;;15.70;;
4268;SDS011;2148;48.554;7.834;2022-08-19T03:34:25;17.10;;;15.50;;
4268;SDS011;2148;48.554;7.834;2022-08-19T03:36:51;17.47;;;15.70;;
4268;SDS011;2148;48.554;7.834;2022-08-19T03:39:17;16.73;;;15.20;;
4268;SDS011;2148;48.554;7.834;2022-08-19T03:41:43;15.87;;;14.47;;
4268;SDS011;2148;48.554;7.834;2022-08-19T03:44:09;16.87;;;15.17;;
4268;SDS011;2148;48.554;7.834;2022-08-19T03:46:35;16.83;;;15.10;;
4268;SDS011;2148;48.554;7.834;2022-08-19T03:49:01;16.33;;;14.80;;
4268;SDS011;2148;48.554;7.834;2022-08-19T03:51:30;17.30;;;15.23;;
4268;SDS011;2148;48.554;7.834;2022-08-19T03:53:58;17.00;;;15.30;;
4268;SDS011;2148;48.554;7.834;2022-08-19T03:56:25;17.97;;;16.23;;
4268;SDS011;2148;48.554;7.834;2022-08-19T03:58:52;17.93;;;16.17;;
4268;SDS011;2148;48.554;7.834;2022-08-19T04:01:19;18.90;;;17.00;;
4268;SDS011;2148;48.554;7.834;2022-08-19T04:03:46;17.23;;;15.63;;
4268;SDS011;2148;48.554;7.834;2022-08-19T04:06:16;17.90;;;15.90;;
4268;SDS011;2148;48.554;7.834;2022-08-19T04:08:44;17.70;;;16.00;;
4268;SDS011;2148;48.554;7.834;2022-08-19T04:11:14;17.30;;;15.70;;
4268;SDS011;2148;48.554;7.834;2022-08-19T04:13:41;17.80;;;16.13;;
4268;SDS011;2148;48.554;7.834;2022-08-19T04:16:08;17.83;;;16.13;;
4268;SDS011;2148;48.554;7.834;2022-08-19T04:18:34;17.93;;;16.00;;
4268;SDS011;2148;48.554;7.834;2022-08-19T04:21:00;17.90;;;16.03;;
4268;SDS011;2148;48.554;7.834;2022-08-19T04:23:26;18.10;;;16.20;;
4268;SDS011;2148;48.554;7.834;2022-08-19T04:25:53;17.87;;;15.97;;
4268;SDS011;2148;48.554;7.834;2022-08-19T04:28:18;18.40;;;16.60;;
4268;SDS011;2148;48.554;7.834;2022-08-19T04:30:47;17.40;;;15.60;;
4268;SDS011;2148;48.554;7.834;2022-08-19T04:33:15;18.20;;;16.40;;
4268;SDS011;2148;48.554;7.834;2022-08-19T04:35:44;18.30;;;16.47;;
4268;SDS011;2148;48.554;7.834;2022-08-19T04:38:12;18.70;;;16.77;;
4268;SDS011;2148;48.554;7.834;2022-08-19T04:40:41;18.20;;;16.43;;
4268;SDS011;2148;48.554;7.834;2022-08-19T04:43:29;20.23;;;16.70;;
4268;SDS011;2148;48.554;7.834;2022-08-19T04:45:54;18.30;;;16.30;;
4268;SDS011;2148;48.554;7.834;2022-08-19T04:48:20;19.37;;;17.43;;
4268;SDS011;2148;48.554;7.834;2022-08-19T04:50:50;17.83;;;16.13;;
4268;SDS011;2148;48.554;7.834;2022-08-19T04:53:29;18.67;;;16.87;;
4268;SDS011;2148;48.554;7.834;2022-08-19T04:55:55;20.20;;;17.73;;
4268;SDS011;2148;48.554;7.834;2022-08-19T04:58:21;18.83;;;17.03;;
4268;SDS011;2148;48.554;7.834;2022-08-19T05:00:47;18.67;;;16.87;;
4268;SDS011;2148;48.554;7.834;2022-08-19T05:03:13;17.67;;;15.97;;
4268;SDS011;2148;48.554;7.834;2022-08-19T05:05:41;19.63;;;16.97;;
4268;SDS011;2148;48.554;7.834;2022-08-19T05:08:07;19.90;;;17.90;;
4268;SDS011;2148;48.554;7.834;2022-08-19T05:10:35;20.20;;;18.27;;
4268;SDS011;2148;48.554;7.834;2022-08-19T05:13:01;19.37;;;17.63;;
4268;SDS011;2148;48.554;7.834;2022-08-19T05:15:26;20.13;;;18.13;;
4268;SDS011;2148;48.554;7.834;2022-08-19T05:17:52;19.80;;;17.80;;
4268;SDS011;2148;48.554;7.834;2022-08-19T05:20:37;19.40;;;17.40;;
4268;SDS011;2148;48.554;7.834;2022-08-19T05:23:22;19.60;;;17.60;;
4268;SDS011;2148;48.554;7.834;2022-08-19T05:25:47;19.93;;;18.03;;
4268;SDS011;2148;48.554;7.834;2022-08-19T05:28:12;21.13;;;18.63;;
4268;SDS011;2148;48.554;7.834;2022-08-19T05:30:37;19.63;;;17.83;;
4268;SDS011;2148;48.554;7.834;2022-08-19T05:33:02;19.57;;;17.57;;
4268;SDS011;2148;48.554;7.834;2022-08-19T05:35:28;18.97;;;17.10;;
4268;SDS011;2148;48.554;7.834;2022-08-19T05:37:53;21.10;;;19.03;;
4268;SDS011;2148;48.554;7.834;2022-08-19T05:40:19;21.60;;;19.30;;
4268;SDS011;2148;48.554;7.834;2022-08-19T05:42:44;21.33;;;19.23;;
4268;SDS011;2148;48.554;7.834;2022-08-19T05:45:10;25.13;;;19.27;;
4268;SDS011;2148;48.554;7.834;2022-08-19T05:47:36;20.20;;;18.30;;
4268;SDS011;2148;48.554;7.834;2022-08-19T05:50:02;20.77;;;18.70;;
4268;SDS011;2148;48.554;7.834;2022-08-19T05:52:28;22.73;;;20.57;;
4268;SDS011;2148;48.554;7.834;2022-08-19T05:54:53;22.50;;;20.40;;
4268;SDS011;2148;48.554;7.834;2022-08-19T05:57:20;23.17;;;20.80;;
4268;SDS011;2148;48.554;7.834;2022-08-19T05:59:45;23.10;;;20.90;;
4268;SDS011;2148;48.554;7.834;2022-08-19T06:02:13;22.67;;;20.57;;
4268;SDS011;2148;48.554;7.834;2022-08-19T06:04:39;23.13;;;20.70;;
4268;SDS011;2148;48.554;7.834;2022-08-19T06:07:07;22.70;;;20.33;;
4268;SDS011;2148;48.554;7.834;2022-08-19T06:09:33;22.17;;;20.07;;
4268;SDS011;2148;48.554;7.834;2022-08-19T06:11:58;21.47;;;19.27;;
4268;SDS011;2148;48.554;7.834;2022-08-19T06:14:26;21.53;;;19.47;;
4268;SDS011;2148;48.554;7.834;2022-08-19T06:16:53;22.97;;;20.70;;
4268;SDS011;2148;48.554;7.834;2022-08-19T06:19:20;21.47;;;19.37;;
4268;SDS011;2148;48.554;7.834;2022-08-19T06:21:47;22.83;;;20.67;;
4268;SDS011;2148;48.554;7.834;2022-08-19T06:24:15;21.57;;;19.60;;
4268;SDS011;2148;48.554;7.834;2022-08-19T06:26:43;22.20;;;20.00;;
4268;SDS011;2148;48.554;7.834;2022-08-19T06:29:10;22.30;;;20.20;;
4268;SDS011;2148;48.554;7.834;2022-08-19T06:31:37;22.20;;;20.17;;
4268;SDS011;2148;48.554;7.834;2022-08-19T06:34:06;21.87;;;19.63;;
4268;SDS011;2148;48.554;7.834;2022-08-19T06:36:35;23.40;;;21.10;;
4268;SDS011;2148;48.554;7.834;2022-08-19T06:39:12;21.23;;;19.10;;
4268;SDS011;2148;48.554;7.834;2022-08-19T06:41:40;22.63;;;20.33;;
4268;SDS011;2148;48.554;7.834;2022-08-19T06:44:07;21.97;;;19.77;;
4268;SDS011;2148;48.554;7.834;2022-08-19T06:46:32;21.40;;;19.37;;
4268;SDS011;2148;48.554;7.834;2022-08-19T06:48:58;20.67;;;18.63;;
4268;SDS011;2148;48.554;7.834;2022-08-19T06:51:23;21.73;;;19.63;;
4268;SDS011;2148;48.554;7.834;2022-08-19T06:53:50;21.13;;;19.13;;
4268;SDS011;2148;48.554;7.834;2022-08-19T06:56:17;22.20;;;19.90;;
4268;SDS011;2148;48.554;7.834;2022-08-19T06:58:44;21.10;;;19.20;;
4268;SDS011;2148;48.554;7.834;2022-08-19T07:01:11;20.50;;;18.57;;
4268;SDS011;2148;48.554;7.834;2022-08-19T07:03:37;22.30;;;19.97;;
4268;SDS011;2148;48.554;7.834;2022-08-19T07:06:07;22.70;;;20.50;;
4268;SDS011;2148;48.554;7.834;2022-08-19T07:08:35;20.90;;;18.90;;
4268;SDS011;2148;48.554;7.834;2022-08-19T07:11:09;21.10;;;19.10;;
4268;SDS011;2148;48.554;7.834;2022-08-19T07:13:36;20.37;;;18.37;;
4268;SDS011;2148;48.554;7.834;2022-08-19T07:16:06;20.07;;;18.07;;
4268;SDS011;2148;48.554;7.834;2022-08-19T07:18:32;21.33;;;19.23;;
4268;SDS011;2148;48.554;7.834;2022-08-19T07:21:12;21.27;;;19.27;;
4268;SDS011;2148;48.554;7.834;2022-08-19T07:23:39;20.67;;;18.77;;
4268;SDS011;2148;48.554;7.834;2022-08-19T07:26:06;20.50;;;18.30;;
4268;SDS011;2148;48.554;7.834;2022-08-19T07:28:39;22.53;;;20.40;;
4268;SDS011;2148;48.554;7.834;2022-08-19T07:31:05;22.33;;;19.97;;
4268;SDS011;2148;48.554;7.834;2022-08-19T07:33:31;19.97;;;17.83;;
4268;SDS011;2148;48.554;7.834;2022-08-19T07:35:57;20.87;;;18.77;;
4268;SDS011;2148;48.554;7.834;2022-08-19T07:38:23;21.37;;;19.37;;
4268;SDS011;2148;48.554;7.834;2022-08-19T07:40:48;20.30;;;18.20;;
4268;SDS011;2148;48.554;7.834;2022-08-19T07:43:13;21.90;;;19.70;;
4268;SDS011;2148;48.554;7.834;2022-08-19T07:45:40;20.33;;;18.37;;
4268;SDS011;2148;48.554;7.834;2022-08-19T07:48:05;20.23;;;18.27;;
4268;SDS011;2148;48.554;7.834;2022-08-19T07:50:30;20.90;;;18.17;;
4268;SDS011;2148;48.554;7.834;2022-08-19T07:52:55;21.30;;;19.40;;
4268;SDS011;2148;48.554;7.834;2022-08-19T07:55:22;19.87;;;17.97;;
4268;SDS011;2148;48.554;7.834;2022-08-19T07:57:49;19.63;;;17.63;;
4268;SDS011;2148;48.554;7.834;2022-08-19T08:00:14;22.80;;;20.47;;
4268;SDS011;2148;48.554;7.834;2022-08-19T08:02:40;21.07;;;19.07;;
4268;SDS011;2148;48.554;7.834;2022-08-19T08:05:07;21.07;;;19.07;;
4268;SDS011;2148;48.554;7.834;2022-08-19T08:07:52;20.30;;;18.40;;
4268;SDS011;2148;48.554;7.834;2022-08-19T08:10:36;22.20;;;20.10;;
4268;SDS011;2148;48.554;7.834;2022-08-19T08:13:01;21.00;;;18.90;;
4268;SDS011;2148;48.554;7.834;2022-08-19T08:15:27;20.10;;;18.13;;
4268;SDS011;2148;48.554;7.834;2022-08-19T08:17:53;19.30;;;17.60;;
4268;SDS011;2148;48.554;7.834;2022-08-19T08:20:19;20.57;;;18.57;;
4268;SDS011;2148;48.554;7.834;2022-08-19T08:22:45;19.83;;;17.87;;
4268;SDS011;2148;48.554;7.834;2022-08-19T08:25:29;21.10;;;19.10;;
4268;SDS011;2148;48.554;7.834;2022-08-19T08:27:56;19.87;;;17.87;;
4268;SDS011;2148;48.554;7.834;2022-08-19T08:30:22;20.53;;;18.50;;
4268;SDS011;2148;48.554;7.834;2022-08-19T08:32:49;19.53;;;17.70;;
4268;SDS011;2148;48.554;7.834;2022-08-19T08:35:16;20.50;;;18.53;;
4268;SDS011;2148;48.554;7.834;2022-08-19T08:37:43;19.73;;;17.73;;
4268;SDS011;2148;48.554;7.834;2022-08-19T08:40:16;19.80;;;17.70;;
4268;SDS011;2148;48.554;7.834;2022-08-19T08:42:47;20.80;;;18.80;;
4268;SDS011;2148;48.554;7.834;2022-08-19T08:45:17;19.57;;;17.70;;
4268;SDS011;2148;48.554;7.834;2022-08-19T08:47:44;20.97;;;18.93;;
4268;SDS011;2148;48.554;7.834;2022-08-19T08:50:17;18.40;;;16.70;;
4268;SDS011;2148;48.554;7.834;2022-08-19T08:52:45;20.03;;;18.03;;
4268;SDS011;2148;48.554;7.834;2022-08-19T08:55:16;18.07;;;16.40;;
4268;SDS011;2148;48.554;7.834;2022-08-19T09:00:15;18.30;;;16.47;;
4268;SDS011;2148;48.554;7.834;2022-08-19T09:02:43;18.97;;;17.10;;
4268;SDS011;2148;48.554;7.834;2022-08-19T09:05:08;17.47;;;15.73;;
4268;SDS011;2148;48.554;7.834;2022-08-19T09:10:22;19.77;;;17.97;;
4268;SDS011;2148;48.554;7.834;2022-08-19T09:12:58;17.37;;;15.57;;
4268;SDS011;2148;48.554;7.834;2022-08-19T09:15:30;17.90;;;16.20;;
4268;SDS011;2148;48.554;7.834;2022-08-19T09:18:00;17.50;;;15.70;;
4268;SDS011;2148;48.554;7.834;2022-08-19T09:20:27;18.87;;;17.07;;
4268;SDS011;2148;48.554;7.834;2022-08-19T09:22:52;17.70;;;16.00;;
4268;SDS011;2148;48.554;7.834;2022-08-19T09:25:19;16.93;;;15.33;;
4268;SDS011;2148;48.554;7.834;2022-08-19T09:27:49;17.10;;;15.40;;
4268;SDS011;2148;48.554;7.834;2022-08-19T09:30:25;14.43;;;13.20;;
4268;SDS011;2148;48.554;7.834;2022-08-19T09:32:52;15.67;;;14.17;;
4268;SDS011;2148;48.554;7.834;2022-08-19T09:35:19;15.47;;;14.07;;
4268;SDS011;2148;48.554;7.834;2022-08-19T09:37:47;16.20;;;14.50;;
4268;SDS011;2148;48.554;7.834;2022-08-19T09:40:13;16.07;;;14.37;;
4268;SDS011;2148;48.554;7.834;2022-08-19T09:42:38;16.30;;;14.70;;
4268;SDS011;2148;48.554;7.834;2022-08-19T09:45:03;17.07;;;15.43;;
4268;SDS011;2148;48.554;7.834;2022-08-19T09:47:29;15.50;;;14.00;;
4268;SDS011;2148;48.554;7.834;2022-08-19T09:49:54;17.50;;;15.90;;
4268;SDS011;2148;48.554;7.834;2022-08-19T09:52:20;15.33;;;13.77;;
4268;SDS011;2148;48.554;7.834;2022-08-19T09:54:45;15.73;;;13.87;;
4268;SDS011;2148;48.554;7.834;2022-08-19T09:57:10;17.47;;;15.67;;
4268;SDS011;2148;48.554;7.834;2022-08-19T09:59:35;18.83;;;15.63;;
4268;SDS011;2148;48.554;7.834;2022-08-19T10:02:01;17.97;;;16.30;;
4268;SDS011;2148;48.554;7.834;2022-08-19T10:04:26;17.73;;;16.00;;
4268;SDS011;2148;48.554;7.834;2022-08-19T10:07:12;16.37;;;14.97;;
4268;SDS011;2148;48.554;7.834;2022-08-19T10:09:37;15.97;;;14.23;;
4268;SDS011;2148;48.554;7.834;2022-08-19T10:12:03;17.67;;;15.80;;
4268;SDS011;2148;48.554;7.834;2022-08-19T10:14:29;17.43;;;15.43;;
4268;SDS011;2148;48.554;7.834;2022-08-19T10:16:55;15.83;;;14.23;;
4268;SDS011;2148;48.554;7.834;2022-08-19T10:19:21;16.37;;;14.83;;
4268;SDS011;2148;48.554;7.834;2022-08-19T10:21:46;15.27;;;13.70;;
4268;SDS011;2148;48.554;7.834;2022-08-19T10:24:11;16.73;;;15.03;;
4268;SDS011;2148;48.554;7.834;2022-08-19T10:26:38;16.03;;;14.47;;
4268;SDS011;2148;48.554;7.834;2022-08-19T10:29:06;17.30;;;15.50;;
4268;SDS011;2148;48.554;7.834;2022-08-19T10:31:32;18.33;;;16.63;;
4268;SDS011;2148;48.554;7.834;2022-08-19T10:33:58;15.83;;;14.33;;
4268;SDS011;2148;48.554;7.834;2022-08-19T10:36:28;18.17;;;16.47;;
4268;SDS011;2148;48.554;7.834;2022-08-19T10:38:56;17.53;;;14.47;;
4268;SDS011;2148;48.554;7.834;2022-08-19T10:41:24;18.20;;;16.37;;
4268;SDS011;2148;48.554;7.834;2022-08-19T10:43:56;15.80;;;14.20;;
4268;SDS011;2148;48.554;7.834;2022-08-19T10:46:25;16.20;;;14.70;;
4268;SDS011;2148;48.554;7.834;2022-08-19T10:48:51;14.70;;;13.30;;
4268;SDS011;2148;48.554;7.834;2022-08-19T10:51:17;18.87;;;16.87;;
4268;SDS011;2148;48.554;7.834;2022-08-19T10:54:02;13.83;;;12.50;;
4268;SDS011;2148;48.554;7.834;2022-08-19T10:56:27;16.27;;;14.73;;
4268;SDS011;2148;48.554;7.834;2022-08-19T10:59:12;17.07;;;15.40;;
4268;SDS011;2148;48.554;7.834;2022-08-19T11:01:39;18.60;;;15.20;;
4268;SDS011;2148;48.554;7.834;2022-08-19T11:04:06;17.70;;;16.10;;
4268;SDS011;2148;48.554;7.834;2022-08-19T11:06:35;16.93;;;15.20;;
4268;SDS011;2148;48.554;7.834;2022-08-19T11:09:01;14.53;;;13.23;;
4268;SDS011;2148;48.554;7.834;2022-08-19T11:11:27;15.57;;;14.00;;
4268;SDS011;2148;48.554;7.834;2022-08-19T11:13:53;15.83;;;14.23;;
4268;SDS011;2148;48.554;7.834;2022-08-19T11:16:19;16.93;;;15.33;;
4268;SDS011;2148;48.554;7.834;2022-08-19T11:18:50;16.73;;;15.13;;
4268;SDS011;2148;48.554;7.834;2022-08-19T11:23:48;15.93;;;14.57;;
4268;SDS011;2148;48.554;7.834;2022-08-19T11:26:15;15.30;;;13.87;;
4268;SDS011;2148;48.554;7.834;2022-08-19T11:28:41;14.53;;;13.20;;
4268;SDS011;2148;48.554;7.834;2022-08-19T11:31:15;14.13;;;12.83;;
4268;SDS011;2148;48.554;7.834;2022-08-19T11:33:42;14.80;;;13.30;;
4268;SDS011;2148;48.554;7.834;2022-08-19T11:36:08;15.47;;;13.97;;
4268;SDS011;2148;48.554;7.834;2022-08-19T11:38:34;16.13;;;14.53;;
4268;SDS011;2148;48.554;7.834;2022-08-19T11:41:01;15.13;;;13.87;;
4268;SDS011;2148;48.554;7.834;2022-08-19T11:43:28;14.00;;;12.60;;
4268;SDS011;2148;48.554;7.834;2022-08-19T11:45:53;14.53;;;13.17;;
4268;SDS011;2148;48.554;7.834;2022-08-19T11:48:19;14.17;;;12.80;;
4268;SDS011;2148;48.554;7.834;2022-08-19T11:50:53;14.60;;;13.20;;
4268;SDS011;2148;48.554;7.834;2022-08-19T11:53:22;14.97;;;13.47;;
4268;SDS011;2148;48.554;7.834;2022-08-19T11:55:47;16.20;;;14.47;;
4268;SDS011;2148;48.554;7.834;2022-08-19T11:58:14;14.07;;;12.63;;
4268;SDS011;2148;48.554;7.834;2022-08-19T12:00:41;12.10;;;11.17;;
4268;SDS011;2148;48.554;7.834;2022-08-19T12:03:06;11.87;;;10.80;;
4268;SDS011;2148;48.554;7.834;2022-08-19T12:05:32;10.90;;;10.00;;
4268;SDS011;2148;48.554;7.834;2022-08-19T12:07:58;10.90;;;9.90;;
4268;SDS011;2148;48.554;7.834;2022-08-19T12:10:23;10.70;;;9.80;;
4268;SDS011;2148;48.554;7.834;2022-08-19T12:12:49;11.63;;;10.53;;
4268;SDS011;2148;48.554;7.834;2022-08-19T12:15:14;9.70;;;8.80;;
4268;SDS011;2148;48.554;7.834;2022-08-19T12:17:40;9.83;;;8.97;;
4268;SDS011;2148;48.554;7.834;2022-08-19T12:20:07;9.60;;;8.80;;
4268;SDS011;2148;48.554;7.834;2022-08-19T12:22:34;9.00;;;8.10;;
4268;SDS011;2148;48.554;7.834;2022-08-19T12:25:00;8.33;;;7.63;;
4268;SDS011;2148;48.554;7.834;2022-08-19T12:27:26;7.43;;;6.80;;
4268;SDS011;2148;48.554;7.834;2022-08-19T12:29:51;7.60;;;7.00;;
4268;SDS011;2148;48.554;7.834;2022-08-19T12:32:16;8.63;;;7.93;;
4268;SDS011;2148;48.554;7.834;2022-08-19T12:34:41;8.57;;;7.83;;
4268;SDS011;2148;48.554;7.834;2022-08-19T12:37:07;8.50;;;7.90;;
4268;SDS011;2148;48.554;7.834;2022-08-19T12:39:40;8.37;;;7.60;;
4268;SDS011;2148;48.554;7.834;2022-08-19T12:42:07;9.33;;;7.77;;
4268;SDS011;2148;48.554;7.834;2022-08-19T12:44:34;8.17;;;7.37;;
4268;SDS011;2148;48.554;7.834;2022-08-19T12:47:00;9.50;;;8.30;;
4268;SDS011;2148;48.554;7.834;2022-08-19T12:49:29;8.20;;;7.40;;
4268;SDS011;2148;48.554;7.834;2022-08-19T12:51:56;8.97;;;8.13;;
4268;SDS011;2148;48.554;7.834;2022-08-19T12:54:22;8.13;;;7.43;;
4268;SDS011;2148;48.554;7.834;2022-08-19T12:56:48;8.93;;;8.23;;
4268;SDS011;2148;48.554;7.834;2022-08-19T12:59:13;9.17;;;8.37;;
4268;SDS011;2148;48.554;7.834;2022-08-19T13:01:40;9.13;;;8.43;;
4268;SDS011;2148;48.554;7.834;2022-08-19T13:04:06;8.77;;;8.07;;
4268;SDS011;2148;48.554;7.834;2022-08-19T13:06:32;8.27;;;7.67;;
4268;SDS011;2148;48.554;7.834;2022-08-19T13:08:57;8.40;;;7.70;;
4268;SDS011;2148;48.554;7.834;2022-08-19T13:11:23;8.10;;;7.43;;
4268;SDS011;2148;48.554;7.834;2022-08-19T13:13:49;9.30;;;8.50;;
4268;SDS011;2148;48.554;7.834;2022-08-19T13:16:15;8.03;;;7.43;;
4268;SDS011;2148;48.554;7.834;2022-08-19T13:18:42;8.03;;;7.40;;
4268;SDS011;2148;48.554;7.834;2022-08-19T13:21:10;7.87;;;7.23;;
4268;SDS011;2148;48.554;7.834;2022-08-19T13:23:37;8.63;;;7.77;;
4268;SDS011;2148;48.554;7.834;2022-08-19T13:26:04;8.47;;;7.77;;
4268;SDS011;2148;48.554;7.834;2022-08-19T13:28:30;8.33;;;7.60;;
4268;SDS011;2148;48.554;7.834;2022-08-19T13:31:16;8.20;;;7.50;;
4268;SDS011;2148;48.554;7.834;2022-08-19T13:34:02;7.63;;;7.03;;
4268;SDS011;2148;48.554;7.834;2022-08-19T13:36:28;8.10;;;7.37;;
4268;SDS011;2148;48.554;7.834;2022-08-19T13:38:53;7.77;;;6.90;;
4268;SDS011;2148;48.554;7.834;2022-08-19T13:41:19;7.40;;;6.70;;
4268;SDS011;2148;48.554;7.834;2022-08-19T13:43:44;7.40;;;6.70;;
4268;SDS011;2148;48.554;7.834;2022-08-19T13:46:10;6.80;;;6.23;;
4268;SDS011;2148;48.554;7.834;2022-08-19T13:48:38;6.97;;;6.43;;
4268;SDS011;2148;48.554;7.834;2022-08-19T13:51:04;7.43;;;6.83;;
4268;SDS011;2148;48.554;7.834;2022-08-19T13:53:30;7.27;;;6.57;;
4268;SDS011;2148;48.554;7.834;2022-08-19T13:55:55;7.50;;;6.60;;
4268;SDS011;2148;48.554;7.834;2022-08-19T13:58:20;7.43;;;6.83;;
4268;SDS011;2148;48.554;7.834;2022-08-19T14:00:47;7.13;;;6.53;;
4268;SDS011;2148;48.554;7.834;2022-08-19T14:03:13;9.50;;;6.90;;
4268;SDS011;2148;48.554;7.834;2022-08-19T14:05:38;7.00;;;6.40;;
4268;SDS011;2148;48.554;7.834;2022-08-19T14:08:04;8.07;;;6.90;;
4268;SDS011;2148;48.554;7.834;2022-08-19T14:10:29;7.90;;;7.20;;
4268;SDS011;2148;48.554;7.834;2022-08-19T14:12:57;8.83;;;6.17;;
4268;SDS011;2148;48.554;7.834;2022-08-19T14:15:23;7.60;;;7.00;;
4268;SDS011;2148;48.554;7.834;2022-08-19T14:17:49;8.37;;;7.40;;
4268;SDS011;2148;48.554;7.834;2022-08-19T14:20:15;7.97;;;6.90;;
4268;SDS011;2148;48.554;7.834;2022-08-19T14:22:41;7.67;;;7.07;;
4268;SDS011;2148;48.554;7.834;2022-08-19T14:25:08;8.27;;;7.47;;
4268;SDS011;2148;48.554;7.834;2022-08-19T14:27:36;8.10;;;7.30;;
4268;SDS011;2148;48.554;7.834;2022-08-19T14:30:03;8.20;;;7.57;;
4268;SDS011;2148;48.554;7.834;2022-08-19T14:32:29;7.90;;;7.30;;
4268;SDS011;2148;48.554;7.834;2022-08-19T14:34:55;8.47;;;7.77;;
4268;SDS011;2148;48.554;7.834;2022-08-19T14:37:20;8.77;;;8.00;;
4268;SDS011;2148;48.554;7.834;2022-08-19T14:39:47;8.50;;;7.70;;
4268;SDS011;2148;48.554;7.834;2022-08-19T14:42:12;8.00;;;7.27;;
4268;SDS011;2148;48.554;7.834;2022-08-19T14:44:39;7.50;;;7.00;;
4268;SDS011;2148;48.554;7.834;2022-08-19T14:47:04;8.33;;;7.60;;
4268;SDS011;2148;48.554;7.834;2022-08-19T14:49:31;8.10;;;7.40;;
4268;SDS011;2148;48.554;7.834;2022-08-19T14:51:57;8.20;;;7.60;;
4268;SDS011;2148;48.554;7.834;2022-08-19T14:54:22;8.03;;;7.33;;
4268;SDS011;2148;48.554;7.834;2022-08-19T14:56:47;9.27;;;8.07;;
4268;SDS011;2148;48.554;7.834;2022-08-19T14:59:13;8.00;;;7.30;;
4268;SDS011;2148;48.554;7.834;2022-08-19T15:01:39;8.27;;;7.57;;
4268;SDS011;2148;48.554;7.834;2022-08-19T15:04:04;8.33;;;7.57;;